sensor_id;sensor_type;location;lat;lon;timestamp;P1;durP1;ratioP1;P2;durP2;ratioP2
64950;SDS011;51482;47.014;7.652;2024-01-30T00:00:03;8.87;;;5.90;;
64950;SDS011;51482;47.014;7.652;2024-01-30T00:02:29;11.83;;;6.50;;
64950;SDS011;51482;47.014;7.652;2024-01-30T00:04:55;9.47;;;6.00;;
64950;SDS011;51482;47.014;7.652;2024-01-30T00:07:21;8.17;;;6.17;;
64950;SDS011;51482;47.014;7.652;2024-01-30T00:09:47;7.47;;;6.17;;
64950;SDS011;51482;47.014;7.652;2024-01-30T00:12:15;7.53;;;6.73;;
64950;SDS011;51482;47.014;7.652;2024-01-30T00:14:41;9.10;;;6.27;;
64950;SDS011;51482;47.014;7.652;2024-01-30T00:17:08;8.47;;;5.77;;
64950;SDS011;51482;47.014;7.652;2024-01-30T00:19:33;8.50;;;5.80;;
64950;SDS011;51482;47.014;7.652;2024-01-30T00:21:59;7.63;;;5.77;;
64950;SDS011;51482;47.014;7.652;2024-01-30T00:24:24;7.43;;;5.70;;
64950;SDS011;51482;47.014;7.652;2024-01-30T00:26:50;8.83;;;6.20;;
64950;SDS011;51482;47.014;7.652;2024-01-30T00:29:16;6.67;;;5.50;;
64950;SDS011;51482;47.014;7.652;2024-01-30T00:31:44;7.60;;;6.60;;
64950;SDS011;51482;47.014;7.652;2024-01-30T00:34:10;7.30;;;6.03;;
64950;SDS011;51482;47.014;7.652;2024-01-30T00:36:36;7.57;;;5.73;;
64950;SDS011;51482;47.014;7.652;2024-01-30T00:39:02;7.70;;;5.83;;
64950;SDS011;51482;47.014;7.652;2024-01-30T00:41:31;9.90;;;6.20;;
64950;SDS011;51482;47.014;7.652;2024-01-30T00:43:57;8.23;;;5.60;;
64950;SDS011;51482;47.014;7.652;2024-01-30T00:46:22;7.73;;;6.13;;
64950;SDS011;51482;47.014;7.652;2024-01-30T00:48:48;7.70;;;6.90;;
64950;SDS011;51482;47.014;7.652;2024-01-30T00:51:13;6.03;;;5.47;;
64950;SDS011;51482;47.014;7.652;2024-01-30T00:53:39;6.80;;;6.10;;
64950;SDS011;51482;47.014;7.652;2024-01-30T00:56:06;9.33;;;6.47;;
64950;SDS011;51482;47.014;7.652;2024-01-30T00:58:32;11.70;;;6.53;;
64950;SDS011;51482;47.014;7.652;2024-01-30T01:00:58;8.70;;;6.03;;
64950;SDS011;51482;47.014;7.652;2024-01-30T01:03:24;9.03;;;7.13;;
64950;SDS011;51482;47.014;7.652;2024-01-30T01:05:49;9.13;;;7.63;;
64950;SDS011;51482;47.014;7.652;2024-01-30T01:08:15;8.50;;;6.30;;
64950;SDS011;51482;47.014;7.652;2024-01-30T01:10:40;10.73;;;6.53;;
64950;SDS011;51482;47.014;7.652;2024-01-30T01:13:06;6.97;;;5.40;;
64950;SDS011;51482;47.014;7.652;2024-01-30T01:15:31;11.67;;;5.87;;
64950;SDS011;51482;47.014;7.652;2024-01-30T01:17:57;7.13;;;5.63;;
64950;SDS011;51482;47.014;7.652;2024-01-30T01:20:22;8.90;;;6.07;;
64950;SDS011;51482;47.014;7.652;2024-01-30T01:22:48;8.10;;;6.33;;
64950;SDS011;51482;47.014;7.652;2024-01-30T01:25:13;10.07;;;5.83;;
64950;SDS011;51482;47.014;7.652;2024-01-30T01:27:39;7.93;;;5.93;;
64950;SDS011;51482;47.014;7.652;2024-01-30T01:30:07;9.33;;;5.90;;
64950;SDS011;51482;47.014;7.652;2024-01-30T01:32:34;6.27;;;5.53;;
64950;SDS011;51482;47.014;7.652;2024-01-30T01:35:00;10.00;;;5.63;;
64950;SDS011;51482;47.014;7.652;2024-01-30T01:37:25;7.53;;;5.40;;
64950;SDS011;51482;47.014;7.652;2024-01-30T01:39:52;6.00;;;5.17;;
64950;SDS011;51482;47.014;7.652;2024-01-30T01:42:17;7.47;;;5.80;;
64950;SDS011;51482;47.014;7.652;2024-01-30T01:44:43;8.03;;;5.93;;
64950;SDS011;51482;47.014;7.652;2024-01-30T01:47:08;9.60;;;5.60;;
64950;SDS011;51482;47.014;7.652;2024-01-30T01:49:34;7.27;;;5.30;;
64950;SDS011;51482;47.014;7.652;2024-01-30T01:51:59;6.30;;;5.57;;
64950;SDS011;51482;47.014;7.652;2024-01-30T01:54:25;7.10;;;5.70;;
64950;SDS011;51482;47.014;7.652;2024-01-30T01:56:53;8.43;;;5.57;;
64950;SDS011;51482;47.014;7.652;2024-01-30T01:59:20;5.50;;;4.83;;
64950;SDS011;51482;47.014;7.652;2024-01-30T02:01:47;5.83;;;5.10;;
64950;SDS011;51482;47.014;7.652;2024-01-30T02:04:14;5.90;;;5.07;;
64950;SDS011;51482;47.014;7.652;2024-01-30T02:06:40;6.50;;;5.57;;
64950;SDS011;51482;47.014;7.652;2024-01-30T02:09:06;7.20;;;5.33;;
64950;SDS011;51482;47.014;7.652;2024-01-30T02:11:32;6.50;;;4.90;;
64950;SDS011;51482;47.014;7.652;2024-01-30T02:14:02;7.37;;;5.53;;
64950;SDS011;51482;47.014;7.652;2024-01-30T02:16:31;5.60;;;5.00;;
64950;SDS011;51482;47.014;7.652;2024-01-30T02:18:57;8.50;;;6.13;;
64950;SDS011;51482;47.014;7.652;2024-01-30T02:21:22;7.00;;;5.63;;
64950;SDS011;51482;47.014;7.652;2024-01-30T02:23:48;6.90;;;6.20;;
64950;SDS011;51482;47.014;7.652;2024-01-30T02:26:14;6.70;;;5.03;;
64950;SDS011;51482;47.014;7.652;2024-01-30T02:28:40;6.43;;;5.77;;
64950;SDS011;51482;47.014;7.652;2024-01-30T02:31:05;6.53;;;5.23;;
64950;SDS011;51482;47.014;7.652;2024-01-30T02:33:31;6.63;;;5.77;;
64950;SDS011;51482;47.014;7.652;2024-01-30T02:35:57;9.03;;;5.50;;
64950;SDS011;51482;47.014;7.652;2024-01-30T02:38:23;8.47;;;5.53;;
64950;SDS011;51482;47.014;7.652;2024-01-30T02:40:49;6.23;;;5.50;;
64950;SDS011;51482;47.014;7.652;2024-01-30T02:43:15;5.77;;;4.90;;
64950;SDS011;51482;47.014;7.652;2024-01-30T02:45:41;7.17;;;4.87;;
64950;SDS011;51482;47.014;7.652;2024-01-30T02:48:07;5.57;;;4.97;;
64950;SDS011;51482;47.014;7.652;2024-01-30T02:50:32;5.80;;;4.90;;
64950;SDS011;51482;47.014;7.652;2024-01-30T02:52:58;6.60;;;4.90;;
64950;SDS011;51482;47.014;7.652;2024-01-30T02:55:23;5.63;;;5.13;;
64950;SDS011;51482;47.014;7.652;2024-01-30T02:57:49;5.37;;;4.10;;
64950;SDS011;51482;47.014;7.652;2024-01-30T03:00:14;5.03;;;4.00;;
64950;SDS011;51482;47.014;7.652;2024-01-30T03:02:40;6.13;;;4.43;;
64950;SDS011;51482;47.014;7.652;2024-01-30T03:05:06;4.13;;;3.70;;
64950;SDS011;51482;47.014;7.652;2024-01-30T03:07:33;4.80;;;3.83;;
64950;SDS011;51482;47.014;7.652;2024-01-30T03:09:59;6.17;;;3.80;;
64950;SDS011;51482;47.014;7.652;2024-01-30T03:12:24;4.83;;;4.13;;
64950;SDS011;51482;47.014;7.652;2024-01-30T03:14:50;4.63;;;3.97;;
64950;SDS011;51482;47.014;7.652;2024-01-30T03:17:15;5.93;;;3.97;;
64950;SDS011;51482;47.014;7.652;2024-01-30T03:19:42;4.67;;;4.23;;
64950;SDS011;51482;47.014;7.652;2024-01-30T03:22:07;5.67;;;4.07;;
64950;SDS011;51482;47.014;7.652;2024-01-30T03:24:33;4.53;;;4.07;;
64950;SDS011;51482;47.014;7.652;2024-01-30T03:26:58;4.27;;;3.50;;
64950;SDS011;51482;47.014;7.652;2024-01-30T03:29:24;4.80;;;3.70;;
64950;SDS011;51482;47.014;7.652;2024-01-30T03:31:50;5.43;;;3.80;;
64950;SDS011;51482;47.014;7.652;2024-01-30T03:34:15;5.47;;;4.00;;
64950;SDS011;51482;47.014;7.652;2024-01-30T03:36:41;5.80;;;4.67;;
64950;SDS011;51482;47.014;7.652;2024-01-30T03:39:06;5.40;;;3.93;;
64950;SDS011;51482;47.014;7.652;2024-01-30T03:41:32;4.90;;;3.77;;
64950;SDS011;51482;47.014;7.652;2024-01-30T03:43:57;4.77;;;3.27;;
64950;SDS011;51482;47.014;7.652;2024-01-30T03:46:23;4.60;;;3.30;;
64950;SDS011;51482;47.014;7.652;2024-01-30T03:48:49;4.87;;;4.10;;
64950;SDS011;51482;47.014;7.652;2024-01-30T03:51:15;3.40;;;3.00;;
64950;SDS011;51482;47.014;7.652;2024-01-30T03:53:41;6.97;;;4.50;;
64950;SDS011;51482;47.014;7.652;2024-01-30T03:56:07;4.77;;;3.37;;
64950;SDS011;51482;47.014;7.652;2024-01-30T03:58:33;5.67;;;3.93;;
64950;SDS011;51482;47.014;7.652;2024-01-30T04:00:59;7.87;;;3.50;;
64950;SDS011;51482;47.014;7.652;2024-01-30T04:03:24;3.77;;;3.40;;
64950;SDS011;51482;47.014;7.652;2024-01-30T04:05:53;4.60;;;4.17;;
64950;SDS011;51482;47.014;7.652;2024-01-30T04:08:19;5.37;;;3.27;;
64950;SDS011;51482;47.014;7.652;2024-01-30T04:10:45;4.27;;;3.57;;
64950;SDS011;51482;47.014;7.652;2024-01-30T04:13:11;3.73;;;3.43;;
64950;SDS011;51482;47.014;7.652;2024-01-30T04:15:36;4.43;;;3.37;;
64950;SDS011;51482;47.014;7.652;2024-01-30T04:18:02;3.27;;;2.97;;
64950;SDS011;51482;47.014;7.652;2024-01-30T04:20:28;5.33;;;4.07;;
64950;SDS011;51482;47.014;7.652;2024-01-30T04:22:54;4.80;;;4.00;;
64950;SDS011;51482;47.014;7.652;2024-01-30T04:25:20;5.40;;;3.70;;
64950;SDS011;51482;47.014;7.652;2024-01-30T04:27:45;5.53;;;4.37;;
64950;SDS011;51482;47.014;7.652;2024-01-30T04:30:11;4.13;;;3.67;;
64950;SDS011;51482;47.014;7.652;2024-01-30T04:32:37;5.67;;;4.50;;
64950;SDS011;51482;47.014;7.652;2024-01-30T04:35:03;5.53;;;3.77;;
64950;SDS011;51482;47.014;7.652;2024-01-30T04:37:28;4.77;;;4.10;;
64950;SDS011;51482;47.014;7.652;2024-01-30T04:39:54;4.53;;;3.80;;
64950;SDS011;51482;47.014;7.652;2024-01-30T04:42:19;6.53;;;4.63;;
64950;SDS011;51482;47.014;7.652;2024-01-30T04:44:45;7.63;;;5.57;;
64950;SDS011;51482;47.014;7.652;2024-01-30T04:47:10;4.90;;;4.23;;
64950;SDS011;51482;47.014;7.652;2024-01-30T04:49:38;5.20;;;4.40;;
64950;SDS011;51482;47.014;7.652;2024-01-30T04:52:05;4.30;;;3.90;;
64950;SDS011;51482;47.014;7.652;2024-01-30T04:54:31;5.40;;;4.00;;
64950;SDS011;51482;47.014;7.652;2024-01-30T04:56:56;4.60;;;4.07;;
64950;SDS011;51482;47.014;7.652;2024-01-30T04:59:22;5.70;;;3.90;;
64950;SDS011;51482;47.014;7.652;2024-01-30T05:01:47;7.43;;;4.33;;
64950;SDS011;51482;47.014;7.652;2024-01-30T05:04:13;6.33;;;4.50;;
64950;SDS011;51482;47.014;7.652;2024-01-30T05:06:38;4.07;;;3.73;;
64950;SDS011;51482;47.014;7.652;2024-01-30T05:09:04;5.83;;;3.77;;
64950;SDS011;51482;47.014;7.652;2024-01-30T05:11:30;3.73;;;3.40;;
64950;SDS011;51482;47.014;7.652;2024-01-30T05:13:55;6.57;;;4.27;;
64950;SDS011;51482;47.014;7.652;2024-01-30T05:16:21;5.27;;;4.20;;
64950;SDS011;51482;47.014;7.652;2024-01-30T05:18:47;5.20;;;4.40;;
64950;SDS011;51482;47.014;7.652;2024-01-30T05:21:13;5.23;;;3.40;;
64950;SDS011;51482;47.014;7.652;2024-01-30T05:23:38;5.73;;;4.70;;
64950;SDS011;51482;47.014;7.652;2024-01-30T05:26:05;5.33;;;4.30;;
64950;SDS011;51482;47.014;7.652;2024-01-30T05:28:30;6.23;;;4.77;;
64950;SDS011;51482;47.014;7.652;2024-01-30T05:30:57;7.40;;;4.40;;
64950;SDS011;51482;47.014;7.652;2024-01-30T05:33:22;7.00;;;4.10;;
64950;SDS011;51482;47.014;7.652;2024-01-30T05:35:48;5.47;;;4.90;;
64950;SDS011;51482;47.014;7.652;2024-01-30T05:38:13;6.60;;;4.30;;
64950;SDS011;51482;47.014;7.652;2024-01-30T05:40:40;7.13;;;4.57;;
64950;SDS011;51482;47.014;7.652;2024-01-30T05:43:06;5.93;;;4.20;;
64950;SDS011;51482;47.014;7.652;2024-01-30T05:45:32;6.27;;;4.90;;
64950;SDS011;51482;47.014;7.652;2024-01-30T05:47:59;5.80;;;4.40;;
64950;SDS011;51482;47.014;7.652;2024-01-30T05:50:24;5.57;;;4.77;;
64950;SDS011;51482;47.014;7.652;2024-01-30T05:52:51;6.07;;;5.27;;
64950;SDS011;51482;47.014;7.652;2024-01-30T05:55:16;5.67;;;4.50;;
64950;SDS011;51482;47.014;7.652;2024-01-30T05:57:42;8.07;;;5.17;;
64950;SDS011;51482;47.014;7.652;2024-01-30T06:00:08;6.43;;;4.27;;
64950;SDS011;51482;47.014;7.652;2024-01-30T06:02:33;6.67;;;3.97;;
64950;SDS011;51482;47.014;7.652;2024-01-30T06:04:59;6.37;;;4.20;;
64950;SDS011;51482;47.014;7.652;2024-01-30T06:07:24;5.47;;;3.83;;
64950;SDS011;51482;47.014;7.652;2024-01-30T06:09:50;9.93;;;4.53;;
64950;SDS011;51482;47.014;7.652;2024-01-30T06:12:15;6.37;;;4.37;;
64950;SDS011;51482;47.014;7.652;2024-01-30T06:14:41;6.67;;;4.47;;
64950;SDS011;51482;47.014;7.652;2024-01-30T06:17:07;7.17;;;3.90;;
64950;SDS011;51482;47.014;7.652;2024-01-30T06:19:33;6.00;;;4.03;;
64950;SDS011;51482;47.014;7.652;2024-01-30T06:21:59;4.60;;;3.90;;
64950;SDS011;51482;47.014;7.652;2024-01-30T06:24:24;5.83;;;3.90;;
64950;SDS011;51482;47.014;7.652;2024-01-30T06:26:50;4.60;;;3.90;;
64950;SDS011;51482;47.014;7.652;2024-01-30T06:29:16;6.10;;;3.80;;
64950;SDS011;51482;47.014;7.652;2024-01-30T06:31:42;4.37;;;3.97;;
64950;SDS011;51482;47.014;7.652;2024-01-30T06:34:10;5.13;;;3.90;;
64950;SDS011;51482;47.014;7.652;2024-01-30T06:36:37;6.10;;;4.50;;
64950;SDS011;51482;47.014;7.652;2024-01-30T06:39:02;3.97;;;3.67;;
64950;SDS011;51482;47.014;7.652;2024-01-30T06:41:28;4.33;;;3.70;;
64950;SDS011;51482;47.014;7.652;2024-01-30T06:43:54;5.70;;;3.80;;
64950;SDS011;51482;47.014;7.652;2024-01-30T06:46:20;5.73;;;4.23;;
64950;SDS011;51482;47.014;7.652;2024-01-30T06:48:46;6.77;;;4.87;;
64950;SDS011;51482;47.014;7.652;2024-01-30T06:51:11;5.90;;;4.17;;
64950;SDS011;51482;47.014;7.652;2024-01-30T06:53:37;4.73;;;4.27;;
64950;SDS011;51482;47.014;7.652;2024-01-30T06:56:03;4.40;;;3.63;;
64950;SDS011;51482;47.014;7.652;2024-01-30T06:58:29;4.40;;;3.70;;
64950;SDS011;51482;47.014;7.652;2024-01-30T07:00:54;5.30;;;4.00;;
64950;SDS011;51482;47.014;7.652;2024-01-30T07:03:20;7.73;;;3.87;;
64950;SDS011;51482;47.014;7.652;2024-01-30T07:05:46;6.07;;;5.00;;
64950;SDS011;51482;47.014;7.652;2024-01-30T07:08:12;4.47;;;4.03;;
64950;SDS011;51482;47.014;7.652;2024-01-30T07:10:38;8.20;;;5.30;;
64950;SDS011;51482;47.014;7.652;2024-01-30T07:13:03;5.87;;;4.47;;
64950;SDS011;51482;47.014;7.652;2024-01-30T07:15:30;5.60;;;4.60;;
64950;SDS011;51482;47.014;7.652;2024-01-30T07:17:56;4.80;;;4.10;;
64950;SDS011;51482;47.014;7.652;2024-01-30T07:20:21;6.70;;;4.63;;
64950;SDS011;51482;47.014;7.652;2024-01-30T07:22:47;8.40;;;5.40;;
64950;SDS011;51482;47.014;7.652;2024-01-30T07:25:13;7.43;;;5.17;;
64950;SDS011;51482;47.014;7.652;2024-01-30T07:27:38;5.33;;;4.07;;
64950;SDS011;51482;47.014;7.652;2024-01-30T07:30:04;6.30;;;4.20;;
64950;SDS011;51482;47.014;7.652;2024-01-30T07:32:30;6.90;;;4.90;;
64950;SDS011;51482;47.014;7.652;2024-01-30T07:34:56;5.83;;;4.87;;
64950;SDS011;51482;47.014;7.652;2024-01-30T07:37:22;6.43;;;4.93;;
64950;SDS011;51482;47.014;7.652;2024-01-30T07:39:47;6.87;;;4.93;;
64950;SDS011;51482;47.014;7.652;2024-01-30T07:42:13;8.57;;;5.07;;
64950;SDS011;51482;47.014;7.652;2024-01-30T07:44:38;9.77;;;6.40;;
64950;SDS011;51482;47.014;7.652;2024-01-30T07:47:04;6.37;;;5.00;;
64950;SDS011;51482;47.014;7.652;2024-01-30T07:49:30;8.17;;;5.10;;
64950;SDS011;51482;47.014;7.652;2024-01-30T07:51:59;6.23;;;5.40;;
64950;SDS011;51482;47.014;7.652;2024-01-30T07:54:27;6.47;;;4.57;;
64950;SDS011;51482;47.014;7.652;2024-01-30T07:56:58;5.17;;;4.67;;
64950;SDS011;51482;47.014;7.652;2024-01-30T07:59:23;7.10;;;5.60;;
64950;SDS011;51482;47.014;7.652;2024-01-30T08:01:49;7.13;;;5.07;;
64950;SDS011;51482;47.014;7.652;2024-01-30T08:04:15;6.17;;;4.13;;
64950;SDS011;51482;47.014;7.652;2024-01-30T08:06:40;7.97;;;4.60;;
64950;SDS011;51482;47.014;7.652;2024-01-30T08:09:06;4.97;;;3.97;;
64950;SDS011;51482;47.014;7.652;2024-01-30T08:11:32;4.83;;;3.67;;
64950;SDS011;51482;47.014;7.652;2024-01-30T08:13:57;7.23;;;4.43;;
64950;SDS011;51482;47.014;7.652;2024-01-30T08:16:23;5.33;;;4.23;;
64950;SDS011;51482;47.014;7.652;2024-01-30T08:18:48;6.27;;;4.53;;
64950;SDS011;51482;47.014;7.652;2024-01-30T08:21:14;5.37;;;4.57;;
64950;SDS011;51482;47.014;7.652;2024-01-30T08:23:39;5.90;;;4.83;;
64950;SDS011;51482;47.014;7.652;2024-01-30T08:26:05;6.37;;;5.20;;
64950;SDS011;51482;47.014;7.652;2024-01-30T08:28:31;7.00;;;5.60;;
64950;SDS011;51482;47.014;7.652;2024-01-30T08:30:56;7.63;;;5.50;;
64950;SDS011;51482;47.014;7.652;2024-01-30T08:33:22;12.00;;;6.73;;
64950;SDS011;51482;47.014;7.652;2024-01-30T08:35:47;9.57;;;6.20;;
64950;SDS011;51482;47.014;7.652;2024-01-30T08:38:13;10.53;;;5.57;;
64950;SDS011;51482;47.014;7.652;2024-01-30T08:40:39;7.83;;;5.67;;
64950;SDS011;51482;47.014;7.652;2024-01-30T08:43:04;8.10;;;4.93;;
64950;SDS011;51482;47.014;7.652;2024-01-30T08:45:30;10.60;;;5.63;;
64950;SDS011;51482;47.014;7.652;2024-01-30T08:47:55;7.27;;;4.90;;
64950;SDS011;51482;47.014;7.652;2024-01-30T08:50:21;6.63;;;4.80;;
64950;SDS011;51482;47.014;7.652;2024-01-30T08:52:47;7.33;;;5.43;;
64950;SDS011;51482;47.014;7.652;2024-01-30T08:55:12;9.07;;;5.27;;
64950;SDS011;51482;47.014;7.652;2024-01-30T08:57:38;10.50;;;5.50;;
64950;SDS011;51482;47.014;7.652;2024-01-30T09:00:04;6.97;;;5.17;;
64950;SDS011;51482;47.014;7.652;2024-01-30T09:02:31;12.17;;;6.20;;
64950;SDS011;51482;47.014;7.652;2024-01-30T09:04:57;11.73;;;6.23;;
64950;SDS011;51482;47.014;7.652;2024-01-30T09:07:23;13.27;;;5.97;;
64950;SDS011;51482;47.014;7.652;2024-01-30T09:09:49;13.33;;;7.00;;
64950;SDS011;51482;47.014;7.652;2024-01-30T09:12:14;11.53;;;6.57;;
64950;SDS011;51482;47.014;7.652;2024-01-30T09:14:40;9.53;;;7.43;;
64950;SDS011;51482;47.014;7.652;2024-01-30T09:17:06;15.53;;;11.33;;
64950;SDS011;51482;47.014;7.652;2024-01-30T09:19:31;12.97;;;7.83;;
64950;SDS011;51482;47.014;7.652;2024-01-30T09:21:57;8.30;;;6.43;;
64950;SDS011;51482;47.014;7.652;2024-01-30T09:24:23;11.40;;;6.53;;
64950;SDS011;51482;47.014;7.652;2024-01-30T09:26:48;12.33;;;7.13;;
64950;SDS011;51482;47.014;7.652;2024-01-30T09:29:14;9.67;;;5.93;;
64950;SDS011;51482;47.014;7.652;2024-01-30T09:31:42;8.13;;;6.07;;
64950;SDS011;51482;47.014;7.652;2024-01-30T09:34:08;9.80;;;6.40;;
64950;SDS011;51482;47.014;7.652;2024-01-30T09:36:34;9.97;;;5.73;;
64950;SDS011;51482;47.014;7.652;2024-01-30T09:38:59;6.03;;;5.30;;
64950;SDS011;51482;47.014;7.652;2024-01-30T09:41:25;8.03;;;5.73;;
64950;SDS011;51482;47.014;7.652;2024-01-30T09:43:53;8.90;;;6.10;;
64950;SDS011;51482;47.014;7.652;2024-01-30T09:46:22;15.97;;;5.87;;
64950;SDS011;51482;47.014;7.652;2024-01-30T09:48:52;10.37;;;5.17;;
64950;SDS011;51482;47.014;7.652;2024-01-30T09:51:19;7.17;;;5.13;;
64950;SDS011;51482;47.014;7.652;2024-01-30T09:53:46;8.00;;;6.17;;
64950;SDS011;51482;47.014;7.652;2024-01-30T09:56:12;14.63;;;5.73;;
64950;SDS011;51482;47.014;7.652;2024-01-30T09:58:39;6.40;;;5.43;;
64950;SDS011;51482;47.014;7.652;2024-01-30T10:01:07;8.83;;;5.47;;
64950;SDS011;51482;47.014;7.652;2024-01-30T10:03:32;9.70;;;4.97;;
64950;SDS011;51482;47.014;7.652;2024-01-30T10:05:58;8.67;;;4.70;;
64950;SDS011;51482;47.014;7.652;2024-01-30T10:08:26;9.83;;;5.97;;
64950;SDS011;51482;47.014;7.652;2024-01-30T10:10:51;13.83;;;6.87;;
64950;SDS011;51482;47.014;7.652;2024-01-30T10:13:17;17.53;;;6.37;;
64950;SDS011;51482;47.014;7.652;2024-01-30T10:15:43;9.50;;;5.83;;
64950;SDS011;51482;47.014;7.652;2024-01-30T10:18:10;16.87;;;7.47;;
64950;SDS011;51482;47.014;7.652;2024-01-30T10:20:36;13.93;;;6.43;;
64950;SDS011;51482;47.014;7.652;2024-01-30T10:23:02;13.13;;;6.30;;
64950;SDS011;51482;47.014;7.652;2024-01-30T10:25:28;14.00;;;6.77;;
64950;SDS011;51482;47.014;7.652;2024-01-30T10:27:55;7.70;;;5.03;;
64950;SDS011;51482;47.014;7.652;2024-01-30T10:30:21;11.60;;;5.13;;
64950;SDS011;51482;47.014;7.652;2024-01-30T10:32:47;11.10;;;5.40;;
64950;SDS011;51482;47.014;7.652;2024-01-30T10:35:13;7.57;;;4.77;;
64950;SDS011;51482;47.014;7.652;2024-01-30T10:37:39;7.03;;;4.83;;
64950;SDS011;51482;47.014;7.652;2024-01-30T10:40:04;9.33;;;5.07;;
64950;SDS011;51482;47.014;7.652;2024-01-30T10:42:32;8.03;;;5.03;;
64950;SDS011;51482;47.014;7.652;2024-01-30T10:47:36;10.17;;;5.60;;
64950;SDS011;51482;47.014;7.652;2024-01-30T10:50:02;8.13;;;4.83;;
64950;SDS011;51482;47.014;7.652;2024-01-30T10:52:31;8.07;;;5.70;;
64950;SDS011;51482;47.014;7.652;2024-01-30T10:54:57;6.87;;;4.90;;
64950;SDS011;51482;47.014;7.652;2024-01-30T10:57:24;6.57;;;5.13;;
64950;SDS011;51482;47.014;7.652;2024-01-30T10:59:51;6.77;;;5.00;;
64950;SDS011;51482;47.014;7.652;2024-01-30T11:02:20;6.87;;;4.90;;
64950;SDS011;51482;47.014;7.652;2024-01-30T11:04:46;10.90;;;5.33;;
64950;SDS011;51482;47.014;7.652;2024-01-30T11:07:19;8.50;;;5.00;;
64950;SDS011;51482;47.014;7.652;2024-01-30T11:09:54;6.73;;;5.20;;
64950;SDS011;51482;47.014;7.652;2024-01-30T11:12:28;7.60;;;6.33;;
64950;SDS011;51482;47.014;7.652;2024-01-30T11:15:01;8.23;;;5.33;;
64950;SDS011;51482;47.014;7.652;2024-01-30T11:20:26;7.87;;;5.10;;
64950;SDS011;51482;47.014;7.652;2024-01-30T11:22:56;11.20;;;5.67;;
64950;SDS011;51482;47.014;7.652;2024-01-30T11:25:22;10.33;;;6.47;;
64950;SDS011;51482;47.014;7.652;2024-01-30T11:27:49;8.20;;;5.00;;
64950;SDS011;51482;47.014;7.652;2024-01-30T11:30:22;7.47;;;5.03;;
64950;SDS011;51482;47.014;7.652;2024-01-30T11:33:05;12.20;;;6.97;;
64950;SDS011;51482;47.014;7.652;2024-01-30T11:35:36;7.57;;;4.73;;
64950;SDS011;51482;47.014;7.652;2024-01-30T11:38:03;6.30;;;4.50;;
64950;SDS011;51482;47.014;7.652;2024-01-30T11:40:30;7.70;;;5.27;;
64950;SDS011;51482;47.014;7.652;2024-01-30T11:42:57;6.37;;;5.20;;
64950;SDS011;51482;47.014;7.652;2024-01-30T11:45:24;9.17;;;5.37;;
64950;SDS011;51482;47.014;7.652;2024-01-30T11:47:49;6.20;;;5.20;;
64950;SDS011;51482;47.014;7.652;2024-01-30T11:50:15;8.33;;;5.67;;
64950;SDS011;51482;47.014;7.652;2024-01-30T11:52:41;6.30;;;5.23;;
64950;SDS011;51482;47.014;7.652;2024-01-30T11:55:08;6.37;;;4.93;;
64950;SDS011;51482;47.014;7.652;2024-01-30T11:57:34;5.73;;;4.77;;
64950;SDS011;51482;47.014;7.652;2024-01-30T12:00:01;5.73;;;5.00;;
64950;SDS011;51482;47.014;7.652;2024-01-30T12:02:33;5.43;;;4.63;;
64950;SDS011;51482;47.014;7.652;2024-01-30T12:05:02;7.78;;;4.90;;
64950;SDS011;51482;47.014;7.652;2024-01-30T12:07:29;5.87;;;4.60;;
64950;SDS011;51482;47.014;7.652;2024-01-30T12:09:55;5.80;;;5.18;;
64950;SDS011;51482;47.014;7.652;2024-01-30T12:12:24;6.63;;;4.80;;
64950;SDS011;51482;47.014;7.652;2024-01-30T12:14:51;7.57;;;5.22;;
64950;SDS011;51482;47.014;7.652;2024-01-30T12:17:32;6.30;;;4.82;;
64950;SDS011;51482;47.014;7.652;2024-01-30T12:20:03;5.93;;;4.47;;
64950;SDS011;51482;47.014;7.652;2024-01-30T12:22:41;6.10;;;4.70;;
64950;SDS011;51482;47.014;7.652;2024-01-30T12:25:08;5.45;;;4.70;;
64950;SDS011;51482;47.014;7.652;2024-01-30T12:27:35;11.40;;;5.20;;
64950;SDS011;51482;47.014;7.652;2024-01-30T12:30:04;6.85;;;5.10;;
64950;SDS011;51482;47.014;7.652;2024-01-30T12:32:31;7.90;;;5.75;;
64950;SDS011;51482;47.014;7.652;2024-01-30T12:34:56;9.32;;;5.90;;
64950;SDS011;51482;47.014;7.652;2024-01-30T12:37:22;7.57;;;5.05;;
64950;SDS011;51482;47.014;7.652;2024-01-30T12:39:49;6.97;;;5.80;;
64950;SDS011;51482;47.014;7.652;2024-01-30T12:42:17;8.00;;;5.65;;
64950;SDS011;51482;47.014;7.652;2024-01-30T12:44:42;9.25;;;6.50;;
64950;SDS011;51482;47.014;7.652;2024-01-30T12:47:11;7.18;;;6.20;;
64950;SDS011;51482;47.014;7.652;2024-01-30T12:49:36;9.27;;;6.93;;
64950;SDS011;51482;47.014;7.652;2024-01-30T12:52:02;9.40;;;7.07;;
64950;SDS011;51482;47.014;7.652;2024-01-30T12:54:27;10.88;;;7.90;;
64950;SDS011;51482;47.014;7.652;2024-01-30T12:56:53;9.65;;;7.43;;
64950;SDS011;51482;47.014;7.652;2024-01-30T12:59:19;8.30;;;7.32;;
64950;SDS011;51482;47.014;7.652;2024-01-30T13:01:44;9.40;;;7.25;;
64950;SDS011;51482;47.014;7.652;2024-01-30T13:04:10;10.82;;;8.68;;
64950;SDS011;51482;47.014;7.652;2024-01-30T13:06:36;11.30;;;8.02;;
64950;SDS011;51482;47.014;7.652;2024-01-30T13:09:01;11.20;;;7.63;;
64950;SDS011;51482;47.014;7.652;2024-01-30T13:11:28;11.35;;;7.30;;
64950;SDS011;51482;47.014;7.652;2024-01-30T13:13:53;12.25;;;7.80;;
64950;SDS011;51482;47.014;7.652;2024-01-30T13:16:19;10.70;;;7.93;;
64950;SDS011;51482;47.014;7.652;2024-01-30T13:18:44;11.32;;;7.82;;
64950;SDS011;51482;47.014;7.652;2024-01-30T13:21:10;9.23;;;7.35;;
64950;SDS011;51482;47.014;7.652;2024-01-30T13:23:35;9.13;;;7.57;;
64950;SDS011;51482;47.014;7.652;2024-01-30T13:26:01;13.77;;;8.32;;
64950;SDS011;51482;47.014;7.652;2024-01-30T13:28:27;9.73;;;7.00;;
64950;SDS011;51482;47.014;7.652;2024-01-30T13:30:52;8.70;;;7.53;;
64950;SDS011;51482;47.014;7.652;2024-01-30T13:33:18;10.30;;;8.23;;
64950;SDS011;51482;47.014;7.652;2024-01-30T13:35:43;9.45;;;8.23;;
64950;SDS011;51482;47.014;7.652;2024-01-30T13:38:09;8.30;;;6.90;;
64950;SDS011;51482;47.014;7.652;2024-01-30T13:40:35;8.25;;;7.45;;
64950;SDS011;51482;47.014;7.652;2024-01-30T13:43:01;11.00;;;7.38;;
64950;SDS011;51482;47.014;7.652;2024-01-30T13:45:26;9.90;;;7.68;;
64950;SDS011;51482;47.014;7.652;2024-01-30T13:47:52;8.38;;;7.18;;
64950;SDS011;51482;47.014;7.652;2024-01-30T13:50:18;10.73;;;7.90;;
64950;SDS011;51482;47.014;7.652;2024-01-30T13:52:43;8.33;;;7.37;;
64950;SDS011;51482;47.014;7.652;2024-01-30T13:55:09;10.50;;;7.32;;
64950;SDS011;51482;47.014;7.652;2024-01-30T13:57:35;9.07;;;7.60;;
64950;SDS011;51482;47.014;7.652;2024-01-30T14:00:03;10.43;;;7.47;;
64950;SDS011;51482;47.014;7.652;2024-01-30T14:02:32;10.65;;;7.85;;
64950;SDS011;51482;47.014;7.652;2024-01-30T14:04:57;8.43;;;7.33;;
64950;SDS011;51482;47.014;7.652;2024-01-30T14:07:23;10.00;;;7.70;;
64950;SDS011;51482;47.014;7.652;2024-01-30T14:09:48;10.77;;;7.80;;
64950;SDS011;51482;47.014;7.652;2024-01-30T14:12:14;11.68;;;8.95;;
64950;SDS011;51482;47.014;7.652;2024-01-30T14:14:40;12.40;;;8.43;;
64950;SDS011;51482;47.014;7.652;2024-01-30T14:17:06;11.60;;;8.80;;
64950;SDS011;51482;47.014;7.652;2024-01-30T14:19:32;11.38;;;8.32;;
64950;SDS011;51482;47.014;7.652;2024-01-30T14:21:59;11.07;;;8.60;;
64950;SDS011;51482;47.014;7.652;2024-01-30T14:24:24;10.53;;;7.90;;
64950;SDS011;51482;47.014;7.652;2024-01-30T14:26:50;12.90;;;8.80;;
64950;SDS011;51482;47.014;7.652;2024-01-30T14:29:16;13.02;;;8.73;;
64950;SDS011;51482;47.014;7.652;2024-01-30T14:31:41;12.50;;;8.88;;
64950;SDS011;51482;47.014;7.652;2024-01-30T14:34:07;13.07;;;9.30;;
64950;SDS011;51482;47.014;7.652;2024-01-30T14:36:33;12.73;;;9.63;;
64950;SDS011;51482;47.014;7.652;2024-01-30T14:38:59;11.27;;;9.13;;
64950;SDS011;51482;47.014;7.652;2024-01-30T14:41:24;13.23;;;9.43;;
64950;SDS011;51482;47.014;7.652;2024-01-30T14:43:50;15.43;;;9.90;;